createdAt,value
2023-02-20T01:58:10.820Z,0.57
2023-02-20T02:00:55.126Z,0.40
2023-02-20T02:03:29.345Z,0.77
2023-02-20T02:06:06.077Z,0.27
2023-02-20T02:08:37.966Z,0.67
2023-02-20T02:11:17.473Z,0.40
2023-02-20T02:13:45.682Z,0.20
2023-02-20T02:17:03.475Z,0.10
2023-02-20T02:19:56.225Z,0.10
2023-02-20T02:23:07.405Z,0.00
2023-02-20T02:26:16.896Z,0.10
2023-02-20T02:29:15.486Z,0.83
2023-02-20T02:32:04.394Z,0.10
2023-02-20T02:35:22.424Z,0.63
2023-02-20T02:38:17.514Z,0.53
2023-02-20T02:41:18.900Z,0.10
2023-02-20T02:44:09.261Z,0.10
2023-02-20T02:47:09.897Z,0.20
2023-02-20T02:50:02.026Z,0.20
2023-02-20T02:52:38.926Z,0.23
2023-02-20T02:55:09.700Z,0.30
2023-02-20T02:57:38.063Z,0.20
2023-02-20T03:00:30.459Z,0.80
2023-02-20T03:03:23.415Z,0.80
2023-02-20T03:06:14.071Z,0.17
2023-02-20T03:09:15.587Z,0.43
2023-02-20T03:11:59.609Z,0.60
2023-02-20T03:14:56.492Z,0.43
2023-02-20T03:17:44.905Z,0.10
2023-02-20T03:20:20.651Z,0.47
2023-02-20T03:23:00.981Z,0.10
2023-02-20T03:25:39.557Z,0.30
2023-02-20T03:28:40.618Z,0.20
2023-02-20T03:31:18.013Z,0.40
2023-02-20T03:34:03.786Z,0.10
2023-02-20T03:37:00.995Z,0.13
2023-02-20T03:39:53.816Z,0.23
2023-02-20T03:42:45.191Z,0.47
2023-02-20T03:45:15.623Z,0.83
2023-02-20T03:47:51.005Z,0.20
2023-02-20T03:50:19.430Z,0.20
2023-02-20T03:52:47.018Z,0.30
2023-02-20T03:55:14.431Z,0.13
2023-02-20T03:57:56.189Z,0.20
2023-02-20T04:00:33.426Z,0.33
2023-02-20T04:03:09.266Z,0.57
2023-02-20T04:05:43.988Z,0.37
2023-02-20T04:08:23.720Z,0.17
2023-02-20T04:11:06.334Z,0.60
2023-02-20T04:13:40.116Z,1.37
2023-02-20T04:16:09.110Z,0.50
2023-02-20T04:18:43.261Z,0.60
2023-02-20T04:21:28.256Z,0.73
2023-02-20T04:24:37.022Z,0.80
2023-02-20T04:27:05.252Z,0.43
2023-02-20T04:29:33.023Z,0.20
2023-02-20T04:32:00.473Z,0.30
2023-02-20T04:34:28.116Z,0.23
2023-02-20T04:37:11.714Z,0.63
2023-02-20T04:39:39.481Z,0.60
2023-02-20T04:42:07.768Z,0.37
2023-02-20T04:44:36.798Z,0.00
2023-02-20T04:47:13.525Z,0.17
2023-02-20T04:49:41.419Z,0.40
2023-02-20T04:52:08.979Z,0.20
2023-02-20T04:54:36.556Z,0.37
2023-02-20T04:57:04.106Z,0.97
2023-02-20T04:59:31.614Z,1.90
2023-02-20T05:02:04.027Z,0.17
2023-02-20T05:04:35.259Z,1.30
2023-02-20T05:07:05.974Z,0.83
2023-02-20T05:09:33.377Z,1.30
2023-02-20T05:12:01.050Z,0.93
2023-02-20T05:14:28.379Z,0.50
2023-02-20T05:16:55.848Z,1.37
2023-02-20T05:19:23.206Z,0.20
2023-02-20T09:03:27.375Z,0.60
2023-02-20T09:05:55.060Z,0.50
2023-02-20T09:08:39.936Z,1.33
2023-02-20T09:11:10.035Z,0.97
2023-02-20T09:13:44.170Z,1.37
2023-02-20T09:16:14.259Z,0.73
2023-02-20T09:18:43.474Z,0.60
2023-02-20T09:21:13.823Z,1.30
2023-02-20T09:23:41.604Z,0.53
2023-02-20T09:26:09.186Z,1.10
2023-02-20T09:28:40.810Z,1.63
2023-02-20T09:31:21.485Z,0.87
2023-02-20T09:33:52.324Z,1.50
2023-02-20T09:36:20.149Z,0.50
2023-02-20T09:38:48.049Z,0.13
2023-02-20T09:41:41.087Z,0.90
2023-02-20T09:44:47.332Z,0.40
2023-02-20T09:48:00.880Z,1.00
2023-02-20T09:50:58.068Z,0.40
2023-02-20T09:53:43.855Z,1.37
2023-02-20T09:56:26.867Z,0.33
2023-02-20T09:59:25.678Z,1.03
2023-02-20T10:02:33.326Z,0.87
2023-02-20T10:05:12.494Z,1.07
2023-02-20T10:07:42.261Z,1.00
2023-02-20T10:10:39.394Z,0.53
2023-02-20T10:13:39.228Z,0.47
2023-02-20T10:16:26.575Z,1.83
2023-02-20T10:19:22.228Z,0.60
2023-02-20T10:22:20.634Z,0.77
2023-02-20T10:24:58.421Z,0.53
2023-02-20T10:28:00.787Z,0.57
2023-02-20T10:30:40.928Z,1.03
2023-02-20T10:33:43.324Z,0.57
2023-02-20T10:36:43.246Z,0.97
2023-02-20T10:39:19.106Z,0.93
2023-02-20T10:42:26.595Z,0.37
2023-02-20T10:45:37.579Z,0.57
2023-02-20T10:48:12.724Z,1.13
2023-02-20T10:51:20.475Z,0.73
2023-02-20T10:54:30.203Z,1.30
2023-02-20T10:57:15.611Z,0.83
2023-02-20T11:00:16.689Z,1.20
2023-02-20T11:03:01.704Z,1.07
2023-02-20T11:05:38.858Z,1.83
2023-02-20T11:08:06.485Z,0.57
2023-02-20T11:10:35.507Z,1.30
2023-02-20T11:13:03.813Z,1.50
2023-02-20T11:15:37.797Z,1.03
2023-02-20T11:18:30.943Z,1.27
2023-02-20T11:21:00.778Z,1.73
2023-02-20T11:23:49.591Z,1.07
2023-02-20T11:26:22.837Z,0.87
2023-02-20T11:29:10.966Z,0.40
2023-02-20T11:31:43.153Z,0.63
2023-02-20T11:34:27.800Z,0.43
2023-02-20T11:37:05.961Z,0.93
2023-02-20T11:39:36.627Z,1.63
2023-02-20T11:42:18.819Z,1.83
2023-02-20T11:44:48.710Z,0.87
2023-02-20T11:47:27.348Z,0.90
2023-02-20T11:50:24.199Z,0.70
2023-02-20T11:53:08.144Z,1.23
2023-02-20T11:55:36.056Z,1.07
2023-02-20T11:58:03.711Z,1.90
2023-02-20T12:00:48.137Z,0.70
2023-02-20T12:03:29.820Z,1.50
2023-02-20T12:05:59.116Z,0.67
2023-02-20T12:08:39.763Z,1.23
2023-02-20T12:11:22.206Z,1.40
2023-02-20T12:13:53.357Z,1.73
2023-02-20T12:16:50.719Z,1.53
2023-02-20T12:19:38.781Z,0.60
2023-02-20T12:22:36.808Z,0.93
2023-02-20T12:25:09.406Z,2.07
2023-02-20T12:28:08.708Z,2.33
2023-02-20T12:30:57.192Z,2.07
2023-02-20T12:34:26.815Z,1.67
2023-02-20T12:37:40.333Z,2.00
2023-02-20T12:40:50.853Z,2.47
2023-02-20T12:43:37.574Z,3.83
2023-02-20T12:46:25.245Z,1.73
2023-02-20T12:49:27.799Z,2.87
2023-02-20T12:52:29.701Z,1.97
2023-02-20T12:55:58.033Z,2.13
2023-02-20T12:58:48.959Z,2.47
2023-02-20T13:01:38.463Z,2.33
2023-02-20T13:05:02.530Z,2.63
2023-02-20T13:08:04.586Z,2.70
2023-02-20T13:10:44.145Z,1.93
2023-02-20T13:13:12.134Z,3.13
2023-02-20T13:16:38.870Z,1.70
2023-02-20T13:19:22.788Z,2.00
2023-02-20T13:21:50.759Z,3.50
2023-02-20T13:24:20.946Z,3.23
2023-02-20T13:26:52.876Z,1.50
2023-02-20T13:29:24.776Z,2.13
2023-02-20T13:31:55.381Z,1.27
2023-02-20T13:34:23.562Z,2.03
2023-02-20T13:36:51.549Z,2.33
2023-02-20T13:39:21.749Z,1.70
2023-02-20T13:41:55.668Z,1.60
2023-02-20T13:44:31.623Z,1.37
2023-02-20T13:47:27.350Z,2.87
2023-02-20T13:49:59.089Z,2.50
2023-02-20T13:52:48.605Z,2.97
2023-02-20T13:55:31.187Z,3.30
2023-02-20T13:58:23.244Z,2.77
2023-02-20T14:00:56.999Z,2.40
2023-02-20T14:03:38.197Z,3.00
2023-02-20T14:06:14.552Z,3.97
2023-02-20T14:08:47.790Z,3.83
2023-02-20T14:11:34.881Z,3.97
2023-02-20T14:14:45.068Z,1.90
2023-02-20T14:17:21.219Z,2.13
2023-02-20T14:20:14.423Z,4.00
2023-02-20T14:22:45.212Z,3.53
2023-02-20T14:25:14.353Z,3.30
2023-02-20T14:27:42.268Z,2.93
2023-02-20T14:30:32.282Z,2.70
2023-02-20T14:33:03.267Z,3.47
2023-02-20T14:36:09.265Z,2.77
2023-02-20T14:38:57.236Z,3.33
2023-02-20T14:41:27.771Z,2.83
2023-02-20T14:44:24.865Z,4.03
2023-02-20T14:47:08.299Z,3.43
2023-02-20T14:49:35.921Z,2.53
2023-02-20T14:52:33.691Z,3.97
2023-02-20T14:55:28.932Z,2.97
2023-02-20T14:58:11.630Z,2.40
2023-02-20T15:00:40.644Z,4.87
2023-02-20T15:03:31.713Z,3.33
2023-02-20T15:06:16.934Z,3.63
2023-02-20T15:08:51.733Z,3.77
2023-02-20T15:12:41.856Z,4.23
2023-02-20T15:15:22.531Z,1.97
2023-02-20T15:18:22.512Z,2.27
2023-02-20T15:20:52.236Z,3.40
2023-02-20T15:24:01.456Z,2.67
2023-02-20T15:34:09.828Z,2.40
2023-02-20T15:37:49.200Z,5.00
2023-02-20T15:43:45.345Z,3.33
2023-02-20T15:46:15.279Z,3.20
2023-02-20T15:48:43.874Z,3.07
2023-02-20T15:51:38.607Z,3.73
2023-02-20T15:54:13.072Z,4.53
2023-02-20T15:56:41.132Z,3.33
2023-02-20T15:59:25.090Z,3.17
2023-02-20T16:02:39.362Z,3.73
2023-02-20T16:05:06.897Z,3.73
2023-02-20T16:07:35.906Z,2.93
2023-02-20T16:10:03.711Z,4.53
2023-02-20T16:12:35.524Z,4.13
2023-02-20T16:15:22.331Z,2.73
2023-02-20T16:17:54.078Z,3.60
2023-02-20T16:24:32.747Z,2.33
2023-02-20T16:27:01.451Z,4.03
2023-02-20T16:29:38.372Z,2.47
2023-02-20T16:32:07.461Z,2.23
2023-02-20T16:34:39.627Z,3.30
2023-02-20T16:37:14.150Z,3.80
2023-02-20T16:39:45.083Z,3.50
2023-02-20T16:42:43.542Z,1.87
2023-02-20T16:45:58.833Z,3.13
2023-02-20T16:48:49.418Z,3.03
2023-02-20T17:13:24.795Z,3.23
2023-02-20T17:15:55.603Z,3.57
2023-02-20T17:20:06.582Z,3.13
2023-02-20T17:43:45.343Z,3.70
2023-02-20T17:50:17.741Z,3.00
2023-02-20T17:57:16.524Z,4.83
2023-02-20T18:00:09.363Z,4.33
2023-02-20T18:02:37.040Z,5.13
2023-02-20T18:05:15.469Z,3.90
2023-02-20T18:11:20.237Z,4.63
2023-02-20T18:15:01.180Z,3.13
2023-02-20T18:17:53.894Z,3.30
2023-02-20T18:20:21.691Z,3.00
2023-02-20T18:22:50.678Z,3.23
2023-02-20T18:25:39.517Z,4.43
2023-02-20T18:28:15.494Z,4.30
2023-02-20T18:31:01.870Z,3.83
2023-02-20T18:33:31.576Z,3.93
2023-02-20T18:36:08.392Z,3.93
2023-02-20T18:42:03.970Z,5.67
2023-02-20T18:44:43.651Z,4.83
2023-02-20T18:47:20.948Z,3.90
2023-02-20T18:50:22.843Z,5.00
2023-02-20T18:53:39.729Z,5.17
2023-02-20T19:01:09.045Z,3.37
2023-02-20T19:03:58.313Z,3.83
2023-02-20T19:06:50.945Z,3.80
2023-02-20T19:25:12.558Z,3.90
2023-02-20T19:27:42.044Z,4.73
2023-02-20T19:30:10.413Z,5.40
2023-02-20T19:32:37.996Z,5.97
2023-02-20T19:35:16.642Z,4.37
2023-02-20T19:37:51.696Z,4.93
2023-02-20T19:40:24.098Z,4.20
2023-02-20T19:42:55.232Z,6.77
2023-02-20T19:45:22.803Z,5.07
2023-02-20T19:47:50.867Z,5.07
2023-02-20T19:50:31.267Z,5.33
2023-02-20T19:53:04.730Z,6.13
2023-02-20T19:55:33.374Z,5.17
2023-02-20T19:58:10.355Z,5.93
2023-02-20T20:00:38.011Z,3.20
2023-02-20T20:03:50.701Z,5.53
2023-02-20T20:10:17.512Z,5.10
2023-02-20T20:13:05.497Z,6.50
2023-02-20T20:15:44.130Z,5.10
2023-02-20T20:18:16.703Z,4.30
2023-02-20T20:21:19.103Z,3.87
2023-02-20T20:23:56.262Z,4.93
2023-02-20T20:28:37.437Z,5.30
2023-02-20T20:31:49.470Z,3.50
2023-02-20T20:34:51.955Z,3.10
2023-02-20T20:37:36.323Z,5.27
2023-02-20T20:40:22.857Z,5.00
2023-02-20T20:43:07.650Z,9.93
2023-02-20T20:45:44.565Z,6.03
2023-02-20T20:48:18.996Z,6.53
2023-02-20T20:50:49.273Z,7.37
2023-02-20T20:53:19.432Z,5.13
2023-02-20T20:56:23.336Z,6.00
2023-02-20T20:59:27.922Z,3.53
2023-02-20T21:01:57.218Z,3.83
2023-02-20T21:09:06.129Z,4.23
2023-02-20T21:12:03.576Z,5.43
2023-02-20T21:15:09.424Z,4.37
2023-02-20T21:17:48.735Z,3.93
2023-02-20T21:20:55.627Z,4.20
2023-02-20T21:24:05.552Z,5.13
2023-02-20T21:27:33.705Z,5.33
2023-02-20T21:33:03.520Z,3.83
2023-02-20T21:35:31.118Z,5.33
2023-02-20T21:38:08.813Z,5.63
2023-02-20T21:40:36.424Z,4.57
2023-02-20T21:43:24.554Z,5.63
2023-02-20T21:45:54.828Z,4.73
2023-02-20T21:48:22.572Z,5.50
2023-02-20T21:50:52.905Z,3.40
2023-02-20T21:53:20.590Z,5.33
2023-02-20T21:55:48.576Z,3.80
2023-02-20T21:58:44.591Z,3.20
2023-02-20T22:01:12.352Z,3.17
2023-02-20T22:03:40.300Z,2.63
2023-02-20T22:06:16.805Z,6.03
2023-02-20T22:09:03.460Z,1.93
2023-02-20T22:11:52.874Z,2.53
2023-02-20T22:14:39.876Z,2.93
2023-02-20T22:17:26.704Z,3.73
2023-02-20T22:20:15.473Z,2.77
2023-02-20T22:23:02.395Z,2.53
2023-02-20T22:25:48.939Z,2.10
2023-02-20T22:28:36.339Z,2.67
2023-02-20T22:31:24.854Z,2.53
2023-02-20T22:34:10.963Z,3.00
2023-02-20T22:36:57.105Z,2.83
2023-02-20T22:39:43.789Z,2.10
2023-02-20T22:42:35.323Z,2.90
2023-02-20T22:45:23.015Z,3.37
2023-02-20T22:48:09.269Z,1.90
2023-02-20T22:50:55.919Z,2.40
2023-02-20T22:53:42.954Z,1.13
2023-02-20T22:56:40.594Z,1.13
2023-02-20T22:59:26.737Z,1.27
2023-02-20T23:02:17.502Z,3.10
2023-02-20T23:05:05.843Z,1.97
2023-02-20T23:07:51.757Z,2.70
2023-02-20T23:10:37.859Z,2.00
2023-02-20T23:13:24.974Z,2.40
2023-02-20T23:16:11.439Z,2.80
2023-02-20T23:18:57.584Z,1.00
2023-02-20T23:21:44.427Z,1.33
2023-02-20T23:24:31.097Z,1.87
2023-02-20T23:27:17.757Z,1.43
2023-02-20T23:30:05.049Z,3.67
2023-02-20T23:32:51.459Z,1.27
2023-02-20T23:35:37.581Z,2.03
2023-02-20T23:38:24.050Z,1.60
2023-02-20T23:41:10.226Z,1.00
2023-02-20T23:43:57.771Z,1.07
2023-02-20T23:46:44.244Z,0.73
2023-02-20T23:49:30.715Z,0.83
2023-02-20T23:52:17.171Z,0.80
2023-02-20T23:55:03.353Z,1.53
2023-02-20T23:57:49.897Z,0.83
